Latest Weather Observations for Melbourne Airport

IDV60901

Issued at 7:21 am EDT Saturday 28 November 2020 (issued every 10 minutes, with the page automatically refreshed every 10 minutes)

About weather observations | Map of Melbourne area stations | Latest observations for Melbourne area | Other Formats
Station Details ID: 086282 Name: MELBOURNE AIRPORT Lat: -37.67 Lon: 144.83 Height: 113.4 m
Data from the previous 72 hours. | See also: Recent months at Melbourne Airport
Date/Time
EDT
Temp
°C
App
Temp
°C
Dew
Point
°C
Rel
Hum
%
Delta-T
°C
Wind Press
QNH
hPa
Press
MSL
hPa
Rain since
9am
mm
Dir  Spd
km/h
Gust
km/h
Spd
kts
Gust
kts
28/07:00am 15.7 15.9 14.7 94 0.6 NW 7 19 4 10 1008.4 1008.3 0.0
28/06:30am 15.5 15.8 14.5 94 0.6 NW 6 9 3 5 1007.4 1007.2 0.0
28/06:00am 15.3 14.9 14.1 92 0.7 WSW 9 13 5 7 1007.5 1007.3 0.0
28/05:30am 15.5 14.3 14.1 91 0.8 NNW 13 17 7 9 1007.7 1007.5 0.0
28/05:00am 15.7 15.1 14.5 93 0.7 NNW 11 15 6 8 1007.6 1007.4 0.0
28/04:30am 16.0 14.9 14.3 90 1.0 NE 13 26 7 14 1009.0 1008.9 0.0
28/04:00am 16.1 15.1 13.4 84 1.5 S 11 15 6 8 1008.6 1008.5 0.0
28/03:30am 16.5 15.1 13.3 81 1.8 SE 13 17 7 9 1009.3 1009.1 0.0
28/03:26am 16.4 14.6 13.4 82 1.7 SSW 15 24 8 13 1009.0 1008.9 0.0
28/03:16am 16.4 14.3 13.6 83 1.6 SSW 17 32 9 17 1011.1 1010.9 0.0
28/03:00am 16.6 14.0 13.2 80 1.9 SSE 19 30 10 16 1009.0 1008.9 0.0
28/02:30am 17.2 13.3 13.3 78 2.2 SSW 26 35 14 19 1010.2 1010.0 0.0
28/02:00am 18.7 14.0 14.2 75 2.6 SSW 32 41 17 22 1009.4 1009.2 0.0
28/01:53am 19.3 15.5 14.7 74 2.7 S 28 41 15 22 1008.0 1007.8 0.0
28/01:30am 19.9 18.8 14.4 70 3.2 WSW 13 19 7 10 1007.2 1007.0 0.0
28/01:00am 20.9 20.4 13.7 63 4.2 S 9 11 5 6 1006.2 1006.0 0.0
28/12:30am 20.7 22.2 14.6 68 3.6 CALM 0 0 0 0 1006.9 1006.7 0.0
28/12:00am 21.5 22.8 14.0 62 4.4 CALM 0 9 0 5 1007.0 1006.8 0.0
 
Date/Time
EDT
Temp
°C
App
Temp
°C
Dew
Point
°C
Rel
Hum
%
Delta-T
°C
Wind Press
QNH
hPa
Press
MSL
hPa
Rain since
9am
mm
Dir  Spd
km/h
Gust
km/h
Spd
kts
Gust
kts
27/11:30pm 22.6 24.0 14.5 60 4.8 CALM 0 0 0 0 1006.9 1006.7 0.0
27/11:00pm 24.2 24.5 13.3 50 6.4 SSW 4 7 2 4 1007.4 1007.2 0.0
27/10:30pm 25.1 23.7 12.1 44 7.5 SSW 11 17 6 9 1007.7 1007.5 0.0
27/10:00pm 25.2 24.6 13.5 48 6.9 W 9 22 5 12 1007.9 1007.7 0.0
27/09:30pm 26.5 27.5 13.3 44 7.8 CALM 0 0 0 0 1007.3 1007.1 0.0
27/09:00pm 27.9 27.1 13.0 39 8.8 SSE 9 11 5 6 1007.2 1007.0 0.0
27/08:30pm 28.9 25.6 11.0 33 10.3 S 19 24 10 13 1007.1 1006.9 0.0
27/08:00pm 29.3 29.9 15.2 42 8.7 SW 6 7 3 4 1006.9 1006.7 0.0
27/07:30pm 30.3 30.9 15.3 40 9.3 N 6 9 3 5 1006.7 1006.5 0.0
27/07:00pm 31.4 30.1 13.6 33 10.8 NNE 13 13 7 7 1006.5 1006.3 0.0
27/06:30pm 33.0 31.2 9.4 23 13.5 NNW 9 17 5 9 1006.5 1006.3 0.0
27/06:00pm 33.8 30.9 9.7 22 13.9 N 15 19 8 10 1006.7 1006.5 0.0
27/05:30pm 35.0 31.3 7.8 18 15.3 NNW 17 26 9 14 1007.1 1006.9 0.0
27/05:00pm 34.4 31.0 7.6 19 15.0 NNW 15 26 8 14 1007.4 1007.2 0.0
27/04:30pm 34.3 30.1 8.3 20 14.7 NNW 20 30 11 16 1007.5 1007.3 0.0
27/04:00pm 34.7 29.9 5.6 16 15.8 NW 20 30 11 16 1007.8 1007.6 0.0
27/03:30pm 33.8 29.3 9.9 23 13.8 N 24 33 13 18 1008.2 1008.0 0.0
27/03:00pm 33.8 28.5 9.7 22 13.9 NNW 28 41 15 22 1008.8 1008.7 0.0
27/02:35pm 33.1 26.8 9.0 22 13.7 N 32 50 17 27 1009.1 1009.0 0.0
27/02:30pm 34.0 27.6 9.5 22 14.1 NNW 33 50 18 27 1009.1 1009.0 0.0
27/02:20pm 33.7 28.1 8.9 21 14.1 N 28 46 15 25 1009.3 1009.1 0.0
27/02:00pm 32.7 27.2 9.1 23 13.4 N 28 39 15 21 1009.6 1009.4 0.0
27/01:30pm 32.3 28.0 9.2 24 13.1 NNW 22 33 12 18 1010.1 1009.9 0.0
27/01:00pm 32.2 28.0 9.6 24 12.9 NNW 22 32 12 17 1010.4 1010.2 0.0
27/12:30pm 31.2 26.9 9.5 26 12.3 NNW 22 33 12 18 1010.9 1010.7 0.0
27/12:00pm 28.5 24.4 11.3 34 9.9 NNE 24 33 13 18 1011.4 1011.2 0.0
27/11:30am 28.0 23.3 10.8 34 9.8 N 26 35 14 19 1011.8 1011.6 0.0
27/11:00am 27.0 21.1 10.6 35 9.3 NNE 32 43 17 23 1012.0 1011.8 0.0
27/10:30am 26.2 20.3 10.6 37 8.8 NNE 32 41 17 22 1012.1 1011.9 0.0
27/10:00am 24.8 20.2 10.9 41 7.8 NNE 26 33 14 18 1012.3 1012.1 0.0
27/09:55am 24.8 22.0 11.4 43 7.6 NE 17 32 9 17 1012.3 1012.1 0.0
27/09:30am 20.5 19.0 10.6 53 5.4 NE 9 13 5 7 1012.9 1012.7 0.0
27/09:00am 17.3 16.4 9.1 58 4.3 ENE 4 11 2 6 1013.3 1013.1 0.0
27/08:30am 14.5 12.3 7.7 63 3.4 NNE 9 11 5 6 1013.2 1013.0 0.0
27/08:00am 13.2 10.9 8.9 75 2.2 N 11 15 6 8 1013.3 1013.1 0.0
27/07:30am 11.3 8.5 8.7 84 1.3 NNE 13 17 7 9 1013.1 1012.9 0.0
27/07:00am 9.9 6.6 8.0 88 0.9 NNE 15 17 8 9 1013.1 1012.9 0.0
27/06:30am 8.6 5.1 7.1 90 0.7 N 15 17 8 9 1013.2 1013.0 0.0
27/06:00am 7.8 4.6 6.7 93 0.5 N 13 13 7 7 1013.1 1012.9 0.0
27/05:30am 7.7 5.2 6.6 93 0.5 N 9 13 5 7 1013.1 1012.9 0.0
27/05:00am 8.1 5.6 6.6 90 0.7 NNW 9 11 5 6 1013.4 1013.2 0.0
27/04:30am 7.8 5.7 6.7 93 0.5 N 7 9 4 5 1013.4 1013.2 0.0
27/04:00am 8.9 6.5 7.2 89 0.8 NW 9 11 5 6 1014.1 1013.9 0.0
27/03:30am 9.1 6.4 7.2 88 0.9 WNW 11 13 6 7 1014.4 1014.2 0.0
27/03:00am 9.1 6.8 7.4 89 0.8 NW 9 11 5 6 1014.7 1014.5 0.0
27/02:30am 9.3 7.4 7.4 88 0.9 NW 7 9 4 5 1015.1 1014.9 0.0
27/02:00am 9.4 7.1 7.3 87 1.0 WNW 9 11 5 6 1015.9 1015.8 0.0
27/01:30am 10.5 9.9 7.6 82 1.4 CALM 0 0 0 0 1016.1 1016.0 0.0
27/01:00am 11.0 9.3 7.7 80 1.6 SW 6 7 3 4 1016.7 1016.6 0.0
27/12:30am 11.7 9.2 8.0 78 1.8 SSE 11 15 6 8 1017.1 1017.0 0.0
27/12:00am 11.5 9.0 8.0 79 1.7 S 11 13 6 7 1017.5 1017.4 0.0
 
Date/Time
EDT
Temp
°C
App
Temp
°C
Dew
Point
°C
Rel
Hum
%
Delta-T
°C
Wind Press
QNH
hPa
Press
MSL
hPa
Rain since
9am
mm
Dir  Spd
km/h
Gust
km/h
Spd
kts
Gust
kts
26/11:30pm 12.3 10.1 7.8 74 2.2 S 9 13 5 7 1017.6 1017.5 0.0
26/11:00pm 12.2 8.9 7.9 75 2.1 SSE 15 19 8 10 1017.8 1017.7 0.0
26/10:30pm 12.6 9.6 7.9 73 2.3 S 13 17 7 9 1017.8 1017.7 0.0
26/10:00pm 13.2 10.3 8.2 71 2.5 S 13 17 7 9 1017.8 1017.7 0.0
26/09:30pm 14.0 10.9 8.7 70 2.7 SSW 15 19 8 10 1017.7 1017.6 0.0
26/09:00pm 14.2 10.6 8.4 68 2.9 S 17 24 9 13 1017.4 1017.3 0.0
26/08:30pm 14.7 10.6 7.7 63 3.5 SSW 19 26 10 14 1017.4 1017.3 0.0
26/08:00pm 15.6 11.7 8.5 62 3.6 SSW 19 26 10 14 1017.3 1017.2 0.0
26/07:30pm 16.5 12.0 8.5 59 4.1 S 22 32 12 17 1017.2 1017.1 0.0
26/07:00pm 17.1 11.6 7.6 53 4.8 S 26 32 14 17 1016.6 1016.5 0.0
26/06:30pm 17.7 11.7 7.2 50 5.3 S 28 33 15 18 1016.6 1016.5 0.0
26/06:00pm 18.3 12.7 5.4 42 6.3 S 24 32 13 17 1016.4 1016.3 0.0
26/05:30pm 18.6 12.8 4.4 39 6.8 SSW 24 32 13 17 1016.5 1016.4 0.0
26/05:00pm 18.0 12.7 6.8 48 5.6 S 24 32 13 17 1016.6 1016.5 0.0
26/04:30pm 18.8 13.4 7.9 49 5.6 SSW 26 32 14 17 1016.4 1016.3 0.0
26/04:00pm 18.6 13.3 8.4 51 5.3 SSW 26 33 14 18 1016.5 1016.4 0.0
26/03:30pm 19.1 15.1 9.0 52 5.3 S 20 28 11 15 1016.4 1016.3 0.0
26/03:00pm 18.9 14.9 9.2 53 5.1 S 20 33 11 18 1016.6 1016.5 0.0
26/02:30pm 19.2 15.3 9.6 53 5.1 S 20 33 11 18 1016.6 1016.5 0.0
26/02:00pm 18.7 14.5 9.9 56 4.7 S 22 30 12 16 1016.7 1016.6 0.0
26/01:30pm 18.2 14.1 10.2 59 4.3 S 22 30 12 16 1016.7 1016.6 0.0
26/01:00pm 17.5 13.1 10.4 63 3.8 S 24 30 13 16 1016.9 1016.8 0.0
26/12:30pm 17.8 13.9 10.8 63 3.8 S 22 33 12 18 1016.6 1016.5 0.0
26/12:00pm 17.4 13.1 10.7 65 3.6 S 24 32 13 17 1016.7 1016.6 0.0
26/11:30am 16.6 11.7 11.2 70 2.9 S 28 33 15 18 1016.6 1016.5 0.0
26/11:00am 17.5 13.1 11.7 69 3.2 S 26 32 14 17 1016.2 1016.1 0.0
26/10:30am 17.1 13.0 11.6 70 3.0 S 24 30 13 16 1015.8 1015.7 0.0
26/10:00am 17.6 14.3 11.6 68 3.3 S 20 30 11 16 1015.8 1015.7 0.0
26/09:30am 16.8 14.4 12.5 76 2.4 SSW 17 22 9 12 1015.5 1015.3 0.0
26/09:00am 17.1 15.2 13.0 77 2.3 SSW 15 19 8 10 1015.2 1015.0 0.0
26/08:53am 17.2 15.3 13.1 77 2.3 SSW 15 19 8 10 1015.3 1015.1 0.0
26/08:30am 16.8 14.9 13.1 79 2.1 SSW 15 20 8 11 1015.1 1014.9 0.0
26/08:20am 17.2 15.8 13.3 78 2.2 SW 13 19 7 10 1014.9 1014.7 0.0
26/08:00am 16.5 14.8 13.7 83 1.6 SW 15 19 8 10 1014.4 1014.2 0.0
26/07:57am 16.2 14.5 13.7 85 1.4 SW 15 19 8 10 1014.4 1014.2 0.0
26/07:30am 15.6 14.2 13.5 87 1.2 SW 13 17 7 9 1014.0 1013.8 0.0
26/07:00am 14.9 13.4 13.1 89 1.0 WSW 13 17 7 9 1013.4 1013.2 0.0
26/06:52am 14.6 13.1 13.0 90 0.9 WSW 13 15 7 8 1013.3 1013.1 0.0
26/06:30am 14.4 13.2 12.8 90 0.9 WSW 11 13 6 7 1012.5 1012.3 0.0
26/06:00am 14.1 12.4 12.6 91 0.8 WSW 13 17 7 9 1012.0 1011.8 0.0
26/05:30am 13.5 12.0 12.0 91 0.8 WSW 11 19 6 10 1011.2 1011.0 0.0
26/05:00am 14.7 13.1 11.7 82 1.6 N 11 17 6 9 1010.4 1010.2 0.0
26/04:30am 14.7 12.2 12.3 85 1.3 N 17 20 9 11 1009.8 1009.6 0.0
26/04:00am 14.8 13.1 12.4 85 1.3 N 13 17 7 9 1009.7 1009.5 0.0
26/03:30am 15.7 14.7 12.4 81 1.8 N 9 11 5 6 1009.8 1009.6 0.0
26/03:00am 15.3 13.0 13.0 86 1.3 N 17 19 9 10 1009.8 1009.6 0.0
26/02:30am 15.2 13.7 13.0 87 1.2 N 13 15 7 8 1010.0 1009.8 0.0
26/02:00am 15.2 14.7 12.7 85 1.4 NW 7 9 4 5 1010.4 1010.2 0.0
26/01:30am 15.4 14.6 12.9 85 1.4 N 9 13 5 7 1010.5 1010.3 0.0
26/01:00am 17.0 17.5 11.7 71 2.9 CALM 0 0 0 0 1011.1 1010.9 0.0
26/12:30am 16.4 17.2 12.6 78 2.1 CALM 0 0 0 0 1011.4 1011.2 0.0
26/12:00am 17.5 18.2 12.3 71 2.9 CALM 0 0 0 0 1011.6 1011.4 0.0
 
Date/Time
EDT
Temp
°C
App
Temp
°C
Dew
Point
°C
Rel
Hum
%
Delta-T
°C
Wind Press
QNH
hPa
Press
MSL
hPa
Rain since
9am
mm
Dir  Spd
km/h
Gust
km/h
Spd
kts
Gust
kts
25/11:30pm 17.9 17.7 12.9 72 2.8 SW 6 7 3 4 1011.6 1011.4 0.0
25/11:00pm 18.6 17.1 13.1 70 3.1 SSW 13 17 7 9 1011.5 1011.3 0.0
25/10:30pm 19.5 17.3 13.4 68 3.5 SSW 17 22 9 12 1011.5 1011.3 0.0
25/10:00pm 20.3 17.1 14.3 68 3.5 SSW 24 35 13 19 1010.8 1010.6 0.0
25/09:30pm 20.6 19.6 14.7 69 3.5 SSW 13 17 7 9 1010.1 1009.9 0.0
25/09:00pm 21.3 20.3 14.7 66 3.9 S 13 15 7 8 1009.4 1009.2 0.0
25/08:30pm 22.7 21.9 14.0 58 5.1 S 11 17 6 9 1009.1 1009.0 0.0
25/08:00pm 24.3 22.1 13.4 50 6.4 S 17 22 9 12 1008.8 1008.7 0.0
25/07:30pm 27.0 23.7 12.9 41 8.3 S 22 33 12 18 1008.4 1008.3 0.0
25/07:00pm 29.3 26.3 11.9 34 10.2 WSW 19 26 10 14 1007.9 1007.7 0.0
25/06:30pm 30.2 26.8 11.3 31 11.0 WSW 20 28 11 15 1007.8 1007.6 0.0
25/06:00pm 29.4 26.2 11.3 32 10.5 SW 19 30 10 16 1007.8 1007.6 0.0
25/05:30pm 30.5 28.0 12.2 32 10.8 WNW 17 26 9 14 1007.8 1007.6 0.0
25/05:00pm 29.2 26.3 12.2 35 10.0 N 19 26 10 14 1007.9 1007.7 0.0
25/04:30pm 28.8 26.1 11.8 35 9.9 NW 17 26 9 14 1008.1 1007.9 0.0
25/04:00pm 28.8 25.8 11.8 35 9.9 NNW 19 33 10 18 1008.2 1008.0 0.0
25/03:30pm 29.5 26.9 11.9 33 10.3 NNW 17 26 9 14 1008.5 1008.4 0.0
25/03:00pm 29.3 26.1 11.8 34 10.2 NW 20 30 11 16 1008.6 1008.5 0.0
25/02:30pm 28.2 25.2 11.9 36 9.5 NNW 19 30 10 16 1008.8 1008.7 0.0
25/02:00pm 28.3 25.4 12.9 38 9.1 NNW 20 28 11 15 1008.9 1008.8 0.0
25/01:30pm 27.6 24.0 11.9 37 9.1 NW 22 32 12 17 1009.6 1009.4 0.0
25/01:00pm 26.8 24.3 12.4 40 8.4 NNW 17 26 9 14 1010.0 1009.8 0.0
25/12:30pm 26.0 24.2 13.3 45 7.5 NNW 15 32 8 17 1010.2 1010.0 0.0
25/12:00pm 25.2 23.4 13.3 47 7.0 NNE 15 24 8 13 1010.6 1010.4 0.0
25/11:30am 24.1 21.4 11.6 45 7.1 NNE 17 28 9 15 1010.9 1010.7 0.0
25/11:00am 22.3 19.3 10.8 48 6.4 NNE 17 26 9 14 1011.2 1011.0 0.0
25/10:30am 21.2 19.0 10.7 51 5.8 N 13 17 7 9 1011.5 1011.3 0.0
25/10:00am 21.0 18.8 10.8 52 5.6 NNE 13 17 7 9 1011.8 1011.6 0.0
25/09:30am 19.5 17.3 10.7 56 4.8 NE 13 17 7 9 1012.0 1011.8 0.0
25/09:00am 18.9 17.0 10.4 57 4.6 NNE 11 17 6 9 1012.3 1012.1 0.0
25/08:30am 17.7 16.5 11.5 67 3.4 NNE 9 11 5 6 1012.4 1012.2 0.0
25/08:00am 16.3 15.3 12.3 77 2.2 NNE 9 11 5 6 1012.3 1012.1 0.0
25/07:30am 14.6 14.0 12.4 87 1.2 NNE 7 9 4 5 1012.3 1012.1 0.0

Latest Capital City Observations: Canberra | Sydney | Melbourne | Brisbane | Adelaide | Perth | Hobart | Darwin

Other formats

Comma delimited format used in spreadsheet applications
http://www.bom.gov.au/fwo/IDV60901/IDV60901.94866.axf

JavaScript Object Notation format (JSON) in row-major order
http://www.bom.gov.au/fwo/IDV60901/IDV60901.94866.json

Data quality

Most of these data are generated automatically and are frequently updated. Quality checks on data are not normally performed. It is possible for incorrect values to appear. Refer to information at About Latest Weather Observations and please check the disclaimer before using these data.